首页
METAR-TAF:

METAR-TAF

机场 :

底特律, 密歇根州, 美国

纬度: 42-24-33N, 经度: 083-00-36W, 海拔: 191米

当前天气观测

该预报发布于1小时和10分钟前的00:53 UTC
风速5节,风向东转东南
温度 10°C
湿度 32%
气压 1017 hPa
能見度: 16.1公里
多云层高于8500英尺
阴天层高于11000英尺

METAR: KDET 070053Z 12005KT 10SM BKN085 OVC110 10/M06 A3002 RMK AO2 SLP167 T01001061

时间: 22:03 (02:03 UTC)

预报

该预报发布于10分钟前的01:53 UTC
预报有效从07日的 02点(UTC)到 07日的 24点(UTC)
风速5节,风向东南
能見度: 10公里
阴天层高于9000英尺
从 07日的 0500点(UTC)
风速5节,风向东南
能見度: 10公里
阴天层高于4500英尺
从 07日的 0800点(UTC)
风速5节,风向东转东南
能見度: 6.4公里
阴天层高于2500英尺
小阵雨, 轻雾
从 07日的 1100点(UTC)
风速5节,风向东转东南
能見度: 3.2公里
阴天层高于700英尺
小阵雨, 轻雾
从 07日的 2000点(UTC)
风速7节,风向南转南东
能見度: 9.7公里
阴天层高于1500英尺
轻雾

TAF: KDET 070153Z 0702/0724 14005KT P6SM OVC090 FM070500 14005KT P6SM OVC045 FM070800 12005KT 4SM -SHRA BR OVC025 FM071100 12005KT 2SM -SHRA BR OVC007 FM072000 16007KT 6SM BR OVC015

超过4000个机场的气象观测和天气预报(METAR&TAF报告)。

可查询的气象台以黄色和红色小点在地图上表示。

将鼠标移到小点上方,可查看气象台名称。

然后点击查看天气观测和预报。

如需切换地图:点击带黑十字的绿色按钮放大地图;点击带横线的绿色按钮缩小地图;或者点击绿色箭头查看邻近地区的地图。


METAR-TAF: